sensor_id;sensor_type;location;lat;lon;timestamp;P1;durP1;ratioP1;P2;durP2;ratioP2
81229;SDS011;70701;44.452;18.652;2023-08-17T00:01:47;49.45;;;44.25;;
81229;SDS011;70701;44.452;18.652;2023-08-17T00:04:13;51.13;;;44.20;;
81229;SDS011;70701;44.452;18.652;2023-08-17T00:06:39;47.17;;;42.08;;
81229;SDS011;70701;44.452;18.652;2023-08-17T00:09:05;51.05;;;43.67;;
81229;SDS011;70701;44.452;18.652;2023-08-17T00:11:32;51.00;;;44.00;;
81229;SDS011;70701;44.452;18.652;2023-08-17T00:13:58;50.00;;;44.25;;
81229;SDS011;70701;44.452;18.652;2023-08-17T00:16:24;51.80;;;44.08;;
81229;SDS011;70701;44.452;18.652;2023-08-17T00:18:50;49.53;;;44.03;;
81229;SDS011;70701;44.452;18.652;2023-08-17T00:21:15;48.85;;;43.45;;
81229;SDS011;70701;44.452;18.652;2023-08-17T00:23:41;50.78;;;45.22;;
81229;SDS011;70701;44.452;18.652;2023-08-17T00:26:07;51.42;;;45.83;;
81229;SDS011;70701;44.452;18.652;2023-08-17T00:28:33;53.00;;;46.65;;
81229;SDS011;70701;44.452;18.652;2023-08-17T00:30:59;56.50;;;48.75;;
81229;SDS011;70701;44.452;18.652;2023-08-17T00:33:25;53.60;;;47.40;;
81229;SDS011;70701;44.452;18.652;2023-08-17T00:35:51;55.33;;;48.58;;
81229;SDS011;70701;44.452;18.652;2023-08-17T00:38:17;54.35;;;48.47;;
81229;SDS011;70701;44.452;18.652;2023-08-17T00:40:43;59.08;;;52.17;;
81229;SDS011;70701;44.452;18.652;2023-08-17T00:43:09;60.97;;;54.25;;
81229;SDS011;70701;44.452;18.652;2023-08-17T00:45:35;62.05;;;54.35;;
81229;SDS011;70701;44.452;18.652;2023-08-17T00:48:02;61.80;;;52.90;;
81229;SDS011;70701;44.452;18.652;2023-08-17T00:50:32;64.40;;;53.22;;
81229;SDS011;70701;44.452;18.652;2023-08-17T00:53:01;62.85;;;54.15;;
81229;SDS011;70701;44.452;18.652;2023-08-17T00:55:27;59.58;;;52.88;;
81229;SDS011;70701;44.452;18.652;2023-08-17T00:57:53;60.85;;;53.63;;
81229;SDS011;70701;44.452;18.652;2023-08-17T01:00:21;59.22;;;51.30;;
81229;SDS011;70701;44.452;18.652;2023-08-17T01:02:48;59.22;;;51.50;;
81229;SDS011;70701;44.452;18.652;2023-08-17T01:05:16;59.15;;;52.67;;
81229;SDS011;70701;44.452;18.652;2023-08-17T01:07:41;57.40;;;51.20;;
81229;SDS011;70701;44.452;18.652;2023-08-17T01:10:07;60.55;;;52.85;;
81229;SDS011;70701;44.452;18.652;2023-08-17T01:12:57;64.55;;;52.95;;
81229;SDS011;70701;44.452;18.652;2023-08-17T01:15:40;61.42;;;53.90;;
81229;SDS011;70701;44.452;18.652;2023-08-17T01:18:23;58.72;;;51.25;;
81229;SDS011;70701;44.452;18.652;2023-08-17T01:20:53;60.88;;;53.75;;
81229;SDS011;70701;44.452;18.652;2023-08-17T01:23:19;62.75;;;51.40;;
81229;SDS011;70701;44.452;18.652;2023-08-17T01:25:46;58.78;;;51.75;;
81229;SDS011;70701;44.452;18.652;2023-08-17T01:28:11;58.35;;;48.05;;
81229;SDS011;70701;44.452;18.652;2023-08-17T01:30:49;56.95;;;49.00;;
81229;SDS011;70701;44.452;18.652;2023-08-17T01:33:28;52.47;;;45.88;;
81229;SDS011;70701;44.452;18.652;2023-08-17T01:38:30;47.63;;;42.63;;
81229;SDS011;70701;44.452;18.652;2023-08-17T01:40:58;49.78;;;43.63;;
81229;SDS011;70701;44.452;18.652;2023-08-17T01:43:26;48.97;;;42.05;;
81229;SDS011;70701;44.452;18.652;2023-08-17T01:45:52;47.17;;;42.05;;
81229;SDS011;70701;44.452;18.652;2023-08-17T01:48:19;46.58;;;41.38;;
81229;SDS011;70701;44.452;18.652;2023-08-17T01:50:44;46.60;;;41.28;;
81229;SDS011;70701;44.452;18.652;2023-08-17T01:53:10;48.17;;;41.45;;
81229;SDS011;70701;44.452;18.652;2023-08-17T01:55:37;49.60;;;40.13;;
81229;SDS011;70701;44.452;18.652;2023-08-17T01:58:05;47.40;;;39.20;;
81229;SDS011;70701;44.452;18.652;2023-08-17T02:00:31;44.10;;;39.45;;
81229;SDS011;70701;44.452;18.652;2023-08-17T02:02:57;45.13;;;39.83;;
81229;SDS011;70701;44.452;18.652;2023-08-17T02:05:24;44.22;;;39.42;;
81229;SDS011;70701;44.452;18.652;2023-08-17T02:07:50;45.13;;;39.72;;
81229;SDS011;70701;44.452;18.652;2023-08-17T02:10:16;44.03;;;39.22;;
81229;SDS011;70701;44.452;18.652;2023-08-17T02:12:42;41.60;;;37.22;;
81229;SDS011;70701;44.452;18.652;2023-08-17T02:15:07;44.28;;;39.42;;
81229;SDS011;70701;44.452;18.652;2023-08-17T02:17:34;46.47;;;41.38;;
81229;SDS011;70701;44.452;18.652;2023-08-17T02:19:59;49.33;;;41.13;;
81229;SDS011;70701;44.452;18.652;2023-08-17T02:22:25;44.50;;;39.72;;
81229;SDS011;70701;44.452;18.652;2023-08-17T02:24:54;46.33;;;41.25;;
81229;SDS011;70701;44.452;18.652;2023-08-17T02:27:21;47.65;;;42.05;;
81229;SDS011;70701;44.452;18.652;2023-08-17T02:29:47;44.00;;;39.22;;
81229;SDS011;70701;44.452;18.652;2023-08-17T02:32:12;45.17;;;40.53;;
81229;SDS011;70701;44.452;18.652;2023-08-17T02:34:38;44.65;;;39.85;;
81229;SDS011;70701;44.452;18.652;2023-08-17T02:37:04;45.85;;;40.88;;
81229;SDS011;70701;44.452;18.652;2023-08-17T02:39:30;46.88;;;40.30;;
81229;SDS011;70701;44.452;18.652;2023-08-17T02:41:57;46.05;;;40.85;;
81229;SDS011;70701;44.452;18.652;2023-08-17T02:44:22;46.47;;;39.95;;
81229;SDS011;70701;44.452;18.652;2023-08-17T02:46:48;48.60;;;43.28;;
81229;SDS011;70701;44.452;18.652;2023-08-17T02:49:14;47.55;;;40.85;;
81229;SDS011;70701;44.452;18.652;2023-08-17T02:51:39;50.17;;;42.42;;
81229;SDS011;70701;44.452;18.652;2023-08-17T02:54:05;51.33;;;43.03;;
81229;SDS011;70701;44.452;18.652;2023-08-17T02:56:30;56.42;;;45.42;;
81229;SDS011;70701;44.452;18.652;2023-08-17T02:58:56;52.83;;;44.25;;
81229;SDS011;70701;44.452;18.652;2023-08-17T03:01:22;56.63;;;45.05;;
81229;SDS011;70701;44.452;18.652;2023-08-17T03:03:48;60.05;;;45.83;;
81229;SDS011;70701;44.452;18.652;2023-08-17T03:06:13;63.03;;;45.25;;
81229;SDS011;70701;44.452;18.652;2023-08-17T03:08:39;60.45;;;45.97;;
81229;SDS011;70701;44.452;18.652;2023-08-17T03:11:04;67.70;;;47.42;;
81229;SDS011;70701;44.452;18.652;2023-08-17T03:13:32;62.30;;;46.75;;
81229;SDS011;70701;44.452;18.652;2023-08-17T03:15:59;62.53;;;46.30;;
81229;SDS011;70701;44.452;18.652;2023-08-17T03:18:25;57.45;;;44.30;;
81229;SDS011;70701;44.452;18.652;2023-08-17T03:20:51;55.42;;;44.08;;
81229;SDS011;70701;44.452;18.652;2023-08-17T03:23:16;57.63;;;46.40;;
81229;SDS011;70701;44.452;18.652;2023-08-17T03:25:43;59.60;;;45.45;;
81229;SDS011;70701;44.452;18.652;2023-08-17T03:28:08;59.10;;;45.35;;
81229;SDS011;70701;44.452;18.652;2023-08-17T03:30:35;59.63;;;46.15;;
81229;SDS011;70701;44.452;18.652;2023-08-17T03:33:00;55.60;;;44.67;;
81229;SDS011;70701;44.452;18.652;2023-08-17T03:35:26;60.20;;;45.42;;
81229;SDS011;70701;44.452;18.652;2023-08-17T03:37:52;60.10;;;45.50;;
81229;SDS011;70701;44.452;18.652;2023-08-17T03:40:17;61.47;;;45.35;;
81229;SDS011;70701;44.452;18.652;2023-08-17T03:42:43;60.47;;;46.67;;
81229;SDS011;70701;44.452;18.652;2023-08-17T03:45:09;59.35;;;45.13;;
81229;SDS011;70701;44.452;18.652;2023-08-17T03:47:34;60.17;;;45.92;;
81229;SDS011;70701;44.452;18.652;2023-08-17T03:50:00;54.00;;;42.47;;
81229;SDS011;70701;44.452;18.652;2023-08-17T03:52:26;54.42;;;45.22;;
81229;SDS011;70701;44.452;18.652;2023-08-17T03:54:51;53.13;;;44.47;;
81229;SDS011;70701;44.452;18.652;2023-08-17T03:57:17;55.70;;;45.92;;
81229;SDS011;70701;44.452;18.652;2023-08-17T03:59:43;52.38;;;45.63;;
81229;SDS011;70701;44.452;18.652;2023-08-17T04:02:10;52.05;;;44.00;;
81229;SDS011;70701;44.452;18.652;2023-08-17T04:04:36;70.10;;;57.38;;
81229;SDS011;70701;44.452;18.652;2023-08-17T04:07:02;85.50;;;69.07;;
81229;SDS011;70701;44.452;18.652;2023-08-17T04:09:28;77.05;;;62.25;;
81229;SDS011;70701;44.452;18.652;2023-08-17T04:11:53;59.70;;;49.88;;
81229;SDS011;70701;44.452;18.652;2023-08-17T04:14:21;53.50;;;45.45;;
81229;SDS011;70701;44.452;18.652;2023-08-17T04:16:47;52.35;;;44.42;;
81229;SDS011;70701;44.452;18.652;2023-08-17T04:19:13;49.80;;;43.92;;
81229;SDS011;70701;44.452;18.652;2023-08-17T04:21:40;55.25;;;45.25;;
81229;SDS011;70701;44.452;18.652;2023-08-17T04:24:08;49.55;;;43.70;;
81229;SDS011;70701;44.452;18.652;2023-08-17T04:26:33;47.58;;;41.83;;
81229;SDS011;70701;44.452;18.652;2023-08-17T04:28:59;48.15;;;42.42;;
81229;SDS011;70701;44.452;18.652;2023-08-17T04:31:25;48.75;;;41.25;;
81229;SDS011;70701;44.452;18.652;2023-08-17T04:33:58;46.27;;;38.47;;
81229;SDS011;70701;44.452;18.652;2023-08-17T04:36:26;45.20;;;40.08;;
81229;SDS011;70701;44.452;18.652;2023-08-17T04:38:53;46.42;;;38.55;;
81229;SDS011;70701;44.452;18.652;2023-08-17T04:41:20;47.35;;;40.15;;
81229;SDS011;70701;44.452;18.652;2023-08-17T04:43:46;46.15;;;41.10;;
81229;SDS011;70701;44.452;18.652;2023-08-17T04:46:12;48.92;;;41.70;;
81229;SDS011;70701;44.452;18.652;2023-08-17T04:48:39;46.13;;;40.38;;
81229;SDS011;70701;44.452;18.652;2023-08-17T04:51:05;47.58;;;42.05;;
81229;SDS011;70701;44.452;18.652;2023-08-17T04:53:31;47.42;;;41.38;;
81229;SDS011;70701;44.452;18.652;2023-08-17T04:55:56;51.78;;;41.97;;
81229;SDS011;70701;44.452;18.652;2023-08-17T04:58:23;46.88;;;40.53;;
81229;SDS011;70701;44.452;18.652;2023-08-17T05:00:49;46.95;;;40.58;;
81229;SDS011;70701;44.452;18.652;2023-08-17T05:03:15;47.42;;;40.70;;
81229;SDS011;70701;44.452;18.652;2023-08-17T05:05:42;45.15;;;39.83;;
81229;SDS011;70701;44.452;18.652;2023-08-17T05:08:09;52.15;;;43.50;;
81229;SDS011;70701;44.452;18.652;2023-08-17T05:10:36;48.08;;;40.55;;
81229;SDS011;70701;44.452;18.652;2023-08-17T05:13:01;49.03;;;40.58;;
81229;SDS011;70701;44.452;18.652;2023-08-17T05:15:28;47.95;;;40.38;;
81229;SDS011;70701;44.452;18.652;2023-08-17T05:17:55;45.72;;;38.55;;
81229;SDS011;70701;44.452;18.652;2023-08-17T05:20:22;44.90;;;39.33;;
81229;SDS011;70701;44.452;18.652;2023-08-17T05:22:48;45.97;;;39.33;;
81229;SDS011;70701;44.452;18.652;2023-08-17T05:25:14;48.20;;;42.03;;
81229;SDS011;70701;44.452;18.652;2023-08-17T05:27:40;47.42;;;41.70;;
81229;SDS011;70701;44.452;18.652;2023-08-17T05:30:07;49.22;;;41.65;;
81229;SDS011;70701;44.452;18.652;2023-08-17T05:32:33;46.20;;;40.95;;
81229;SDS011;70701;44.452;18.652;2023-08-17T05:34:58;47.17;;;41.67;;
81229;SDS011;70701;44.452;18.652;2023-08-17T05:37:25;51.40;;;44.10;;
81229;SDS011;70701;44.452;18.652;2023-08-17T05:39:50;50.80;;;44.85;;
81229;SDS011;70701;44.452;18.652;2023-08-17T05:42:16;52.85;;;44.63;;
81229;SDS011;70701;44.452;18.652;2023-08-17T05:44:42;57.45;;;46.67;;
81229;SDS011;70701;44.452;18.652;2023-08-17T05:47:07;54.35;;;46.95;;
81229;SDS011;70701;44.452;18.652;2023-08-17T05:49:34;51.75;;;46.10;;
81229;SDS011;70701;44.452;18.652;2023-08-17T05:52:00;50.60;;;45.05;;
81229;SDS011;70701;44.452;18.652;2023-08-17T05:54:26;53.15;;;47.30;;
81229;SDS011;70701;44.452;18.652;2023-08-17T05:56:53;49.00;;;43.65;;
81229;SDS011;70701;44.452;18.652;2023-08-17T05:59:18;51.17;;;44.30;;
81229;SDS011;70701;44.452;18.652;2023-08-17T06:01:44;51.08;;;45.47;;
81229;SDS011;70701;44.452;18.652;2023-08-17T06:04:09;53.22;;;46.47;;
81229;SDS011;70701;44.452;18.652;2023-08-17T06:06:36;51.45;;;45.00;;
81229;SDS011;70701;44.452;18.652;2023-08-17T06:09:04;50.38;;;44.95;;
81229;SDS011;70701;44.452;18.652;2023-08-17T06:11:29;51.78;;;46.15;;
81229;SDS011;70701;44.452;18.652;2023-08-17T06:13:55;52.47;;;44.25;;
81229;SDS011;70701;44.452;18.652;2023-08-17T06:16:21;61.75;;;54.80;;
81229;SDS011;70701;44.452;18.652;2023-08-17T06:18:47;62.95;;;54.65;;
81229;SDS011;70701;44.452;18.652;2023-08-17T06:21:12;59.50;;;53.00;;
81229;SDS011;70701;44.452;18.652;2023-08-17T06:23:38;54.25;;;47.88;;
81229;SDS011;70701;44.452;18.652;2023-08-17T06:26:04;54.72;;;46.83;;
81229;SDS011;70701;44.452;18.652;2023-08-17T06:28:29;50.92;;;45.40;;
81229;SDS011;70701;44.452;18.652;2023-08-17T06:30:58;56.47;;;49.30;;
81229;SDS011;70701;44.452;18.652;2023-08-17T06:33:23;54.33;;;47.42;;
81229;SDS011;70701;44.452;18.652;2023-08-17T06:35:50;56.85;;;50.75;;
81229;SDS011;70701;44.452;18.652;2023-08-17T06:38:15;53.90;;;48.05;;
81229;SDS011;70701;44.452;18.652;2023-08-17T06:40:41;58.10;;;49.58;;
81229;SDS011;70701;44.452;18.652;2023-08-17T06:43:07;48.17;;;42.95;;
81229;SDS011;70701;44.452;18.652;2023-08-17T06:45:33;54.63;;;47.10;;
81229;SDS011;70701;44.452;18.652;2023-08-17T06:47:59;55.03;;;49.20;;
81229;SDS011;70701;44.452;18.652;2023-08-17T06:50:24;55.35;;;48.47;;
81229;SDS011;70701;44.452;18.652;2023-08-17T06:52:51;52.50;;;46.88;;
81229;SDS011;70701;44.452;18.652;2023-08-17T06:55:17;57.17;;;50.35;;
81229;SDS011;70701;44.452;18.652;2023-08-17T06:57:43;54.97;;;48.97;;
81229;SDS011;70701;44.452;18.652;2023-08-17T07:00:09;56.03;;;50.13;;
81229;SDS011;70701;44.452;18.652;2023-08-17T07:02:37;51.97;;;46.50;;
81229;SDS011;70701;44.452;18.652;2023-08-17T07:05:03;55.15;;;48.47;;
81229;SDS011;70701;44.452;18.652;2023-08-17T07:07:29;56.88;;;50.75;;
81229;SDS011;70701;44.452;18.652;2023-08-17T07:09:57;52.22;;;46.70;;
81229;SDS011;70701;44.452;18.652;2023-08-17T07:12:23;52.53;;;46.13;;
81229;SDS011;70701;44.452;18.652;2023-08-17T07:14:51;56.03;;;46.15;;
81229;SDS011;70701;44.452;18.652;2023-08-17T07:17:18;59.97;;;48.72;;
81229;SDS011;70701;44.452;18.652;2023-08-17T07:19:44;53.28;;;47.53;;
81229;SDS011;70701;44.452;18.652;2023-08-17T07:22:09;53.13;;;47.35;;
81229;SDS011;70701;44.452;18.652;2023-08-17T07:24:35;53.33;;;47.78;;
81229;SDS011;70701;44.452;18.652;2023-08-17T07:27:01;52.92;;;46.58;;
81229;SDS011;70701;44.452;18.652;2023-08-17T07:29:28;54.60;;;46.70;;
81229;SDS011;70701;44.452;18.652;2023-08-17T07:31:54;52.92;;;47.20;;
81229;SDS011;70701;44.452;18.652;2023-08-17T07:34:23;53.88;;;48.17;;
81229;SDS011;70701;44.452;18.652;2023-08-17T07:36:49;52.45;;;46.85;;
81229;SDS011;70701;44.452;18.652;2023-08-17T07:39:15;54.65;;;48.38;;
81229;SDS011;70701;44.452;18.652;2023-08-17T07:41:40;52.65;;;46.95;;
81229;SDS011;70701;44.452;18.652;2023-08-17T07:44:06;54.65;;;48.65;;
81229;SDS011;70701;44.452;18.652;2023-08-17T07:46:32;53.72;;;48.15;;
81229;SDS011;70701;44.452;18.652;2023-08-17T07:48:57;53.88;;;48.17;;
81229;SDS011;70701;44.452;18.652;2023-08-17T07:51:23;51.97;;;46.28;;
81229;SDS011;70701;44.452;18.652;2023-08-17T07:53:49;50.65;;;45.30;;
81229;SDS011;70701;44.452;18.652;2023-08-17T07:56:14;52.53;;;47.00;;
81229;SDS011;70701;44.452;18.652;2023-08-17T07:58:40;51.00;;;45.78;;
81229;SDS011;70701;44.452;18.652;2023-08-17T08:01:06;88.63;;;58.70;;
81229;SDS011;70701;44.452;18.652;2023-08-17T08:03:31;151.43;;;97.88;;
81229;SDS011;70701;44.452;18.652;2023-08-17T08:05:57;82.70;;;63.88;;
81229;SDS011;70701;44.452;18.652;2023-08-17T08:08:23;57.92;;;51.58;;
81229;SDS011;70701;44.452;18.652;2023-08-17T08:10:48;62.85;;;52.45;;
81229;SDS011;70701;44.452;18.652;2023-08-17T08:13:14;59.33;;;51.72;;
81229;SDS011;70701;44.452;18.652;2023-08-17T08:15:40;65.75;;;52.03;;
81229;SDS011;70701;44.452;18.652;2023-08-17T08:18:06;57.63;;;50.80;;
81229;SDS011;70701;44.452;18.652;2023-08-17T08:20:31;53.22;;;46.28;;
81229;SDS011;70701;44.452;18.652;2023-08-17T08:22:57;52.47;;;46.63;;
81229;SDS011;70701;44.452;18.652;2023-08-17T08:25:23;51.13;;;45.40;;
81229;SDS011;70701;44.452;18.652;2023-08-17T08:27:48;53.33;;;46.30;;
81229;SDS011;70701;44.452;18.652;2023-08-17T08:30:14;49.58;;;44.33;;
81229;SDS011;70701;44.452;18.652;2023-08-17T08:32:40;50.15;;;44.70;;
81229;SDS011;70701;44.452;18.652;2023-08-17T08:35:06;55.90;;;47.53;;
81229;SDS011;70701;44.452;18.652;2023-08-17T08:37:32;51.35;;;46.03;;
81229;SDS011;70701;44.452;18.652;2023-08-17T08:39:57;50.38;;;45.00;;
81229;SDS011;70701;44.452;18.652;2023-08-17T08:42:23;50.13;;;44.42;;
81229;SDS011;70701;44.452;18.652;2023-08-17T08:44:49;50.63;;;45.20;;
81229;SDS011;70701;44.452;18.652;2023-08-17T08:47:16;51.10;;;45.80;;
81229;SDS011;70701;44.452;18.652;2023-08-17T08:52:22;49.88;;;44.63;;
81229;SDS011;70701;44.452;18.652;2023-08-17T08:54:49;50.28;;;44.97;;
81229;SDS011;70701;44.452;18.652;2023-08-17T08:57:16;48.03;;;43.05;;
81229;SDS011;70701;44.452;18.652;2023-08-17T08:59:42;48.38;;;43.20;;
81229;SDS011;70701;44.452;18.652;2023-08-17T09:02:12;48.47;;;42.85;;
81229;SDS011;70701;44.452;18.652;2023-08-17T09:04:41;48.67;;;43.67;;
81229;SDS011;70701;44.452;18.652;2023-08-17T09:07:10;49.65;;;44.60;;
81229;SDS011;70701;44.452;18.652;2023-08-17T09:09:37;49.35;;;44.40;;
81229;SDS011;70701;44.452;18.652;2023-08-17T09:12:04;49.00;;;44.03;;
81229;SDS011;70701;44.452;18.652;2023-08-17T09:14:33;48.85;;;43.70;;
81229;SDS011;70701;44.452;18.652;2023-08-17T09:16:59;46.40;;;41.70;;
81229;SDS011;70701;44.452;18.652;2023-08-17T09:19:25;48.78;;;43.75;;
81229;SDS011;70701;44.452;18.652;2023-08-17T09:21:50;48.03;;;43.10;;
81229;SDS011;70701;44.452;18.652;2023-08-17T09:24:16;46.25;;;41.70;;
81229;SDS011;70701;44.452;18.652;2023-08-17T09:26:42;47.17;;;42.28;;
81229;SDS011;70701;44.452;18.652;2023-08-17T09:29:18;48.22;;;43.25;;
81229;SDS011;70701;44.452;18.652;2023-08-17T09:31:44;45.60;;;41.20;;
81229;SDS011;70701;44.452;18.652;2023-08-17T09:34:10;47.10;;;42.50;;
81229;SDS011;70701;44.452;18.652;2023-08-17T09:36:36;48.95;;;44.00;;
81229;SDS011;70701;44.452;18.652;2023-08-17T09:39:03;47.60;;;42.90;;
81229;SDS011;70701;44.452;18.652;2023-08-17T09:41:29;46.65;;;42.03;;
81229;SDS011;70701;44.452;18.652;2023-08-17T09:44:03;44.00;;;39.50;;
81229;SDS011;70701;44.452;18.652;2023-08-17T09:46:29;43.08;;;38.67;;
81229;SDS011;70701;44.452;18.652;2023-08-17T09:48:55;43.80;;;39.53;;
81229;SDS011;70701;44.452;18.652;2023-08-17T09:51:22;44.65;;;40.08;;
81229;SDS011;70701;44.452;18.652;2023-08-17T09:53:52;44.72;;;40.28;;
81229;SDS011;70701;44.452;18.652;2023-08-17T09:56:24;43.97;;;39.45;;
81229;SDS011;70701;44.452;18.652;2023-08-17T09:58:50;42.75;;;38.47;;
81229;SDS011;70701;44.452;18.652;2023-08-17T10:01:18;45.00;;;40.25;;
81229;SDS011;70701;44.452;18.652;2023-08-17T10:03:44;44.20;;;39.65;;
81229;SDS011;70701;44.452;18.652;2023-08-17T10:06:12;43.35;;;39.05;;
81229;SDS011;70701;44.452;18.652;2023-08-17T10:08:44;42.30;;;38.20;;
81229;SDS011;70701;44.452;18.652;2023-08-17T10:11:13;42.55;;;38.17;;
81229;SDS011;70701;44.452;18.652;2023-08-17T10:24:03;43.83;;;39.42;;
81229;SDS011;70701;44.452;18.652;2023-08-17T10:26:30;43.28;;;38.90;;
81229;SDS011;70701;44.452;18.652;2023-08-17T10:28:56;40.72;;;36.63;;
81229;SDS011;70701;44.452;18.652;2023-08-17T10:31:25;39.63;;;35.40;;
81229;SDS011;70701;44.452;18.652;2023-08-17T10:33:51;40.90;;;36.78;;
81229;SDS011;70701;44.452;18.652;2023-08-17T10:36:17;39.22;;;35.03;;
81229;SDS011;70701;44.452;18.652;2023-08-17T10:38:43;40.90;;;36.70;;
81229;SDS011;70701;44.452;18.652;2023-08-17T10:41:10;38.90;;;34.85;;
81229;SDS011;70701;44.452;18.652;2023-08-17T10:43:58;39.58;;;35.42;;
81229;SDS011;70701;44.452;18.652;2023-08-17T10:46:34;39.10;;;35.03;;
81229;SDS011;70701;44.452;18.652;2023-08-17T10:49:04;39.30;;;34.28;;
81229;SDS011;70701;44.452;18.652;2023-08-17T10:51:31;38.40;;;34.42;;
81229;SDS011;70701;44.452;18.652;2023-08-17T10:53:58;39.58;;;35.45;;
81229;SDS011;70701;44.452;18.652;2023-08-17T10:56:26;38.20;;;34.17;;
81229;SDS011;70701;44.452;18.652;2023-08-17T10:58:53;37.45;;;33.40;;
81229;SDS011;70701;44.452;18.652;2023-08-17T11:01:30;36.60;;;32.63;;
81229;SDS011;70701;44.452;18.652;2023-08-17T11:04:10;36.70;;;32.60;;
81229;SDS011;70701;44.452;18.652;2023-08-17T11:06:36;38.40;;;34.38;;
81229;SDS011;70701;44.452;18.652;2023-08-17T11:09:05;35.78;;;32.08;;
81229;SDS011;70701;44.452;18.652;2023-08-17T11:11:32;37.95;;;34.05;;
81229;SDS011;70701;44.452;18.652;2023-08-17T11:13:57;38.38;;;34.22;;
81229;SDS011;70701;44.452;18.652;2023-08-17T11:16:23;38.35;;;34.45;;
81229;SDS011;70701;44.452;18.652;2023-08-17T11:18:49;36.92;;;33.13;;
81229;SDS011;70701;44.452;18.652;2023-08-17T11:21:16;37.22;;;33.30;;
81229;SDS011;70701;44.452;18.652;2023-08-17T11:23:42;38.20;;;34.22;;
81229;SDS011;70701;44.452;18.652;2023-08-17T11:26:08;40.30;;;35.80;;
81229;SDS011;70701;44.452;18.652;2023-08-17T11:28:34;37.67;;;33.97;;
81229;SDS011;70701;44.452;18.652;2023-08-17T11:31:06;37.20;;;33.50;;
81229;SDS011;70701;44.452;18.652;2023-08-17T11:33:34;36.72;;;33.03;;
81229;SDS011;70701;44.452;18.652;2023-08-17T11:36:01;35.55;;;31.98;;
81229;SDS011;70701;44.452;18.652;2023-08-17T11:38:32;38.90;;;34.78;;
81229;SDS011;70701;44.452;18.652;2023-08-17T11:40:58;39.35;;;35.30;;
81229;SDS011;70701;44.452;18.652;2023-08-17T11:43:25;38.97;;;35.08;;
81229;SDS011;70701;44.452;18.652;2023-08-17T11:45:52;37.92;;;34.10;;
81229;SDS011;70701;44.452;18.652;2023-08-17T11:48:19;37.65;;;33.70;;
81229;SDS011;70701;44.452;18.652;2023-08-17T11:50:45;37.53;;;33.72;;
81229;SDS011;70701;44.452;18.652;2023-08-17T11:53:11;36.30;;;32.75;;
81229;SDS011;70701;44.452;18.652;2023-08-17T11:55:36;36.53;;;32.83;;
81229;SDS011;70701;44.452;18.652;2023-08-17T11:58:03;37.63;;;33.75;;
81229;SDS011;70701;44.452;18.652;2023-08-17T12:00:34;38.08;;;34.17;;
81229;SDS011;70701;44.452;18.652;2023-08-17T12:03:05;37.33;;;33.38;;
81229;SDS011;70701;44.452;18.652;2023-08-17T12:05:32;36.00;;;32.38;;
81229;SDS011;70701;44.452;18.652;2023-08-17T12:08:00;36.42;;;32.67;;
81229;SDS011;70701;44.452;18.652;2023-08-17T12:10:29;39.53;;;35.45;;
81229;SDS011;70701;44.452;18.652;2023-08-17T12:13:00;37.38;;;33.50;;
81229;SDS011;70701;44.452;18.652;2023-08-17T12:15:30;37.58;;;33.95;;
81229;SDS011;70701;44.452;18.652;2023-08-17T12:17:58;38.28;;;34.38;;
81229;SDS011;70701;44.452;18.652;2023-08-17T12:20:25;37.40;;;33.55;;
81229;SDS011;70701;44.452;18.652;2023-08-17T12:22:51;39.45;;;35.45;;
81229;SDS011;70701;44.452;18.652;2023-08-17T12:25:20;38.08;;;34.22;;
81229;SDS011;70701;44.452;18.652;2023-08-17T12:27:48;38.15;;;34.17;;
81229;SDS011;70701;44.452;18.652;2023-08-17T12:30:20;39.72;;;35.70;;
81229;SDS011;70701;44.452;18.652;2023-08-17T12:32:51;38.25;;;34.40;;
81229;SDS011;70701;44.452;18.652;2023-08-17T12:35:17;39.92;;;35.83;;
81229;SDS011;70701;44.452;18.652;2023-08-17T12:37:42;39.72;;;35.47;;
81229;SDS011;70701;44.452;18.652;2023-08-17T12:40:08;39.30;;;35.38;;
81229;SDS011;70701;44.452;18.652;2023-08-17T12:42:35;38.50;;;34.70;;
81229;SDS011;70701;44.452;18.652;2023-08-17T12:45:00;41.70;;;37.45;;
81229;SDS011;70701;44.452;18.652;2023-08-17T12:47:26;42.38;;;38.05;;
81229;SDS011;70701;44.452;18.652;2023-08-17T12:49:52;44.58;;;40.17;;
81229;SDS011;70701;44.452;18.652;2023-08-17T12:52:17;43.25;;;38.78;;
81229;SDS011;70701;44.452;18.652;2023-08-17T12:54:43;42.83;;;38.45;;
81229;SDS011;70701;44.452;18.652;2023-08-17T12:57:09;44.13;;;39.75;;
81229;SDS011;70701;44.452;18.652;2023-08-17T12:59:34;44.72;;;39.92;;
81229;SDS011;70701;44.452;18.652;2023-08-17T13:02:01;43.20;;;38.70;;
81229;SDS011;70701;44.452;18.652;2023-08-17T13:04:27;45.10;;;40.42;;
81229;SDS011;70701;44.452;18.652;2023-08-17T13:06:53;43.38;;;39.08;;
81229;SDS011;70701;44.452;18.652;2023-08-17T13:09:20;43.97;;;39.55;;
81229;SDS011;70701;44.452;18.652;2023-08-17T13:11:46;44.22;;;39.25;;
81229;SDS011;70701;44.452;18.652;2023-08-17T13:14:12;49.15;;;44.25;;
81229;SDS011;70701;44.452;18.652;2023-08-17T13:16:39;45.38;;;40.97;;
81229;SDS011;70701;44.452;18.652;2023-08-17T13:19:04;45.67;;;41.03;;
81229;SDS011;70701;44.452;18.652;2023-08-17T13:21:30;43.65;;;39.30;;
81229;SDS011;70701;44.452;18.652;2023-08-17T13:23:56;45.38;;;40.83;;
81229;SDS011;70701;44.452;18.652;2023-08-17T13:26:22;43.70;;;39.03;;
81229;SDS011;70701;44.452;18.652;2023-08-17T13:28:48;44.88;;;40.47;;
81229;SDS011;70701;44.452;18.652;2023-08-17T13:31:13;42.40;;;38.25;;
81229;SDS011;70701;44.452;18.652;2023-08-17T13:33:39;42.83;;;38.65;;
81229;SDS011;70701;44.452;18.652;2023-08-17T13:36:05;43.38;;;38.97;;
81229;SDS011;70701;44.452;18.652;2023-08-17T13:38:31;43.42;;;39.05;;
81229;SDS011;70701;44.452;18.652;2023-08-17T13:40:58;42.85;;;38.55;;
81229;SDS011;70701;44.452;18.652;2023-08-17T13:43:23;43.42;;;39.13;;
81229;SDS011;70701;44.452;18.652;2023-08-17T13:45:49;43.58;;;39.08;;
81229;SDS011;70701;44.452;18.652;2023-08-17T13:48:14;44.42;;;40.00;;
81229;SDS011;70701;44.452;18.652;2023-08-17T13:50:41;44.92;;;40.50;;
81229;SDS011;70701;44.452;18.652;2023-08-17T13:53:07;41.00;;;36.78;;
81229;SDS011;70701;44.452;18.652;2023-08-17T13:55:33;42.53;;;38.28;;
81229;SDS011;70701;44.452;18.652;2023-08-17T13:57:59;41.58;;;37.65;;
81229;SDS011;70701;44.452;18.652;2023-08-17T14:00:25;45.75;;;41.13;;
81229;SDS011;70701;44.452;18.652;2023-08-17T14:02:52;45.53;;;40.80;;
81229;SDS011;70701;44.452;18.652;2023-08-17T14:05:17;44.67;;;40.30;;
81229;SDS011;70701;44.452;18.652;2023-08-17T14:07:43;45.45;;;40.95;;
81229;SDS011;70701;44.452;18.652;2023-08-17T14:10:09;40.72;;;36.85;;
81229;SDS011;70701;44.452;18.652;2023-08-17T14:12:35;41.55;;;37.13;;
81229;SDS011;70701;44.452;18.652;2023-08-17T14:15:01;41.75;;;37.40;;
81229;SDS011;70701;44.452;18.652;2023-08-17T14:17:27;39.47;;;35.38;;
81229;SDS011;70701;44.452;18.652;2023-08-17T14:19:53;66.68;;;43.60;;
81229;SDS011;70701;44.452;18.652;2023-08-17T14:22:20;56.22;;;41.13;;